Time;durP1;ratioP1;P1;durP2;ratioP2;P2;SDS_P1;SDS_P2;PMS_P1;PMS_P2;Temp;Humidity;BMP_temperature;BMP_pressure;BME280_temperature;BME280_humidity;BME280_pressure;Samples;Min_cycle;Max_cycle;Signal;HPM_P1;HPM_P2
2021/12/20 00:01:53;;;;;;;;;;;6.00;1.00;;;;;;4890344;29;20025;-84
2021/12/20 00:04:19;;;;;;;;;;;6.00;1.00;;;;;;4898330;29;19927;-84
2021/12/20 00:06:44;;;;;;;;;;;6.00;1.00;;;;;;4895302;29;19935;-84
2021/12/20 00:09:10;;;;;;;;;;;5.90;14.00;;;;;;4899455;29;19927;-84
2021/12/20 00:11:36;;;;;;;;;;;5.90;34.80;;;;;;4882699;29;19937;-84
2021/12/20 00:14:01;;;;;;;;;;;5.90;58.10;;;;;;4901029;29;19978;-85
2021/12/20 00:16:27;;;;;;;;;;;5.80;90.10;;;;;;4899611;29;20380;-84
2021/12/20 00:18:53;;;;;;;;;;;8.10;99.90;;;;;;4866146;29;19935;-85
2021/12/20 00:21:18;;;;;;;;;;;7.90;99.90;;;;;;4863181;29;20358;-85
2021/12/20 00:23:44;;;;;;;;;;;7.70;99.90;;;;;;4882486;29;19982;-84
2021/12/20 00:26:09;;;;;;;;;;;7.50;99.90;;;;;;4880971;29;20063;-85
2021/12/20 00:28:36;;;;;;;;;;;7.20;99.90;;;;;;4896052;29;19927;-86
2021/12/20 00:31:01;;;;;;;;;;;7.90;99.90;;;;;;4880897;29;19939;-84
2021/12/20 00:33:33;;;;;;;;;;;6.10;99.90;;;;;;4897623;29;19939;-85
2021/12/20 00:35:59;;;;;;;;;;;6.10;99.90;;;;;;4881569;29;19931;-83
2021/12/20 00:41:08;;;;;;;;;;;6.70;99.90;;;;;;4874899;29;19927;-84
2021/12/20 00:43:34;;;;;;;;;;;7.00;99.90;;;;;;4892861;29;19935;-85
2021/12/20 00:45:59;;;;;;;;;;;6.10;99.90;;;;;;4881436;29;19942;-84
2021/12/20 00:48:25;;;;;;;;;;;6.40;99.90;;;;;;4897773;29;19963;-83
2021/12/20 00:50:51;;;;;;;;;;;6.60;99.90;;;;;;4896471;29;19927;-84
2021/12/20 00:53:16;;;;;;;;;;;6.20;99.90;;;;;;4882681;29;19967;-83
2021/12/20 00:55:42;;;;;;;;;;;6.90;99.90;;;;;;4884272;29;20314;-83
2021/12/20 00:58:07;;;;;;;;;;;8.30;99.90;;;;;;4883323;29;19932;-83
2021/12/20 01:00:34;;;;;;;;;;;6.10;99.90;;;;;;4879880;29;19928;-84
2021/12/20 01:03:01;;;;;;;;;;;8.00;99.90;;;;;;4901513;29;19927;-84
2021/12/20 01:05:27;;;;;;;;;;;6.00;99.90;;;;;;4877225;29;19932;-85
2021/12/20 01:07:56;;;;;;;;;;;5.90;99.90;;;;;;4882474;29;19938;-84
2021/12/20 01:10:22;;;;;;;;;;;7.50;99.90;;;;;;4885298;29;19974;-83
2021/12/20 01:12:50;;;;;;;;;;;5.80;99.90;;;;;;4900078;29;19982;-82
2021/12/20 01:15:21;;;;;;;;;;;7.50;99.90;;;;;;4897497;29;20348;-83
2021/12/20 01:17:47;;;;;;;;;;;5.80;99.90;;;;;;4881785;29;19931;-83
2021/12/20 01:20:12;;;;;;;;;;;5.80;99.90;;;;;;4881267;29;19938;-84
2021/12/20 01:22:40;;;;;;;;;;;5.80;99.90;;;;;;4897281;29;19958;-85
2021/12/20 01:25:06;;;;;;;;;;;6.30;95.00;;;;;;4897578;29;19927;-83
2021/12/20 01:27:31;;;;;;;;;;;5.80;99.90;;;;;;4895614;29;19995;-83
2021/12/20 01:29:57;;;;;;;;;;;7.80;99.90;;;;;;4879192;29;19989;-84
2021/12/20 01:32:23;;;;;;;;;;;6.40;99.90;;;;;;4878997;29;19928;-84
2021/12/20 01:34:48;;;;;;;;;;;6.80;58.70;;;;;;4894853;29;19986;-83
2021/12/20 01:37:15;;;;;;;;;;;8.00;99.90;;;;;;4879299;29;20750;-83
2021/12/20 01:39:41;;;;;;;;;;;7.90;99.90;;;;;;4875116;29;19960;-84
2021/12/20 01:42:07;;;;;;;;;;;7.80;99.90;;;;;;4878594;29;20079;-83
2021/12/20 01:44:33;;;;;;;;;;;5.60;99.90;;;;;;4894116;29;20388;-83
2021/12/20 01:47:01;;;;;;;;;;;5.90;99.90;;;;;;4880325;29;19935;-85
2021/12/20 01:49:28;;;;;;;;;;;7.00;99.90;;;;;;4896021;29;19982;-84
2021/12/20 01:54:25;;;;;;;;;;;7.60;99.90;;;;;;4860303;29;19934;-84
2021/12/20 01:56:51;;;;;;;;;;;5.40;99.90;;;;;;4879994;29;19939;-84
2021/12/20 01:59:16;;;;;;;;;;;5.40;99.90;;;;;;4877827;29;20026;-84
2021/12/20 02:01:44;;;;;;;;;;;7.20;99.90;;;;;;4862664;29;19934;-84
2021/12/20 02:04:11;;;;;;;;;;;7.60;99.90;;;;;;4872859;29;20001;-84
2021/12/20 02:06:40;;;;;;;;;;;5.50;99.90;;;;;;4875934;29;20376;-84
2021/12/20 02:09:14;;;;;;;;;;;5.40;99.90;;;;;;4895090;29;19928;-84
2021/12/20 02:11:40;;;;;;;;;;;5.40;99.90;;;;;;4881069;29;19928;-84
2021/12/20 02:14:07;;;;;;;;;;;5.50;99.90;;;;;;4895397;29;19935;-84
2021/12/20 02:16:33;;;;;;;;;;;6.30;99.90;;;;;;4894581;29;20303;-84
2021/12/20 02:19:05;;;;;;;;;;;7.30;99.90;;;;;;4878553;29;20325;-82
2021/12/20 02:21:31;;;;;;;;;;;5.30;99.90;;;;;;4893726;29;19939;-85
2021/12/20 02:23:57;;;;;;;;;;;6.20;99.90;;;;;;4894557;29;19932;-84
2021/12/20 02:26:23;;;;;;;;;;;6.90;99.90;;;;;;4863123;29;19931;-84
2021/12/20 02:28:52;;;;;;;;;;;7.40;99.90;;;;;;4860758;29;19934;-83
2021/12/20 02:39:21;;;;;;;;;;;5.40;99.90;;;;;;4876607;29;19978;-84
2021/12/20 02:41:47;;;;;;;;;;;5.50;99.90;;;;;;4863650;29;19936;-83
2021/12/20 02:44:20;;;;;;;;;;;6.40;99.90;;;;;;4895320;29;20368;-84
2021/12/20 02:47:28;;;;;;;;;;;5.40;99.90;;;;;;4861689;29;19927;-84
2021/12/20 02:49:38;;;;;;;;;;;5.30;99.90;;;;;;4891055;29;19931;-84
2021/12/20 02:52:05;;;;;;;;;;;6.30;99.90;;;;;;4893831;29;19928;-84
2021/12/20 02:54:31;;;;;;;;;;;5.30;99.90;;;;;;4874752;29;19934;-83
2021/12/20 02:56:57;;;;;;;;;;;7.30;99.90;;;;;;4888552;29;19935;-84
2021/12/20 02:59:23;;;;;;;;;;;7.30;99.90;;;;;;4894971;29;20017;-83
2021/12/20 03:01:55;;;;;;;;;;;7.70;99.90;;;;;;4878476;29;19934;-84
2021/12/20 03:04:21;;;;;;;;;;;5.30;99.90;;;;;;4893067;29;19928;-84
2021/12/20 03:06:50;;;;;;;;;;;6.50;99.90;;;;;;4895407;29;19928;-82
2021/12/20 03:09:19;;;;;;;;;;;6.70;99.90;;;;;;4890785;29;20380;-83
2021/12/20 03:11:45;;;;;;;;;;;5.30;99.90;;;;;;4874372;29;19927;-82
2021/12/20 03:14:19;;;;;;;;;;;5.90;1.00;;;;;;4894341;29;19927;-83
2021/12/20 03:16:45;;;;;;;;;;;6.40;1.00;;;;;;4876584;29;19935;-83
2021/12/20 03:19:11;;;;;;;;;;;7.00;1.00;;;;;;4880102;29;19927;-83
2021/12/20 03:21:37;;;;;;;;;;;5.20;1.00;;;;;;4895503;29;19927;-83
2021/12/20 03:24:03;;;;;;;;;;;7.10;1.00;;;;;;4896577;29;19928;-83
2021/12/20 03:26:28;;;;;;;;;;;5.20;1.00;;;;;;4895121;29;20129;-83
2021/12/20 03:28:54;;;;;;;;;;;7.20;1.00;;;;;;4877573;29;19932;-83
2021/12/20 03:31:19;;;;;;;;;;;5.20;1.00;;;;;;4894293;29;19993;-83
2021/12/20 03:33:45;;;;;;;;;;;6.30;1.00;;;;;;4894044;29;19928;-82
2021/12/20 03:36:11;;;;;;;;;;;5.00;1.00;;;;;;4891874;29;20010;-83
2021/12/20 03:38:36;;;;;;;;;;;5.80;1.00;;;;;;4895108;29;20003;-83
2021/12/20 03:41:02;;;;;;;;;;;6.30;1.00;;;;;;4875702;29;20289;-82
2021/12/20 03:43:31;;;;;;;;;;;7.30;1.00;;;;;;4862520;29;20300;-82
2021/12/20 03:45:57;;;;;;;;;;;4.70;1.00;;;;;;4878806;29;19928;-83
2021/12/20 03:48:24;;;;;;;;;;;4.50;16.70;;;;;;4875900;29;20341;-82
2021/12/20 03:50:50;;;;;;;;;;;6.60;24.00;;;;;;4894440;29;19931;-83
2021/12/20 03:53:15;;;;;;;;;;;6.50;35.80;;;;;;4860590;29;19935;-83
2021/12/20 03:55:41;;;;;;;;;;;4.20;59.50;;;;;;4893135;29;20320;-82
2021/12/20 03:58:06;;;;;;;;;;;4.40;63.70;;;;;;4894677;29;19932;-83
2021/12/20 04:00:32;;;;;;;;;;;5.60;92.40;;;;;;4878549;29;20013;-83
2021/12/20 04:02:58;;;;;;;;;;;5.60;99.90;;;;;;4871252;29;19961;-83
2021/12/20 04:05:24;;;;;;;;;;;4.40;99.90;;;;;;4894048;29;20006;-83
2021/12/20 04:07:49;;;;;;;;;;;6.10;99.90;;;;;;4892609;29;19935;-83
2021/12/20 04:10:15;;;;;;;;;;;4.20;99.90;;;;;;4872924;29;20026;-83
2021/12/20 04:12:40;;;;;;;;;;;4.20;99.90;;;;;;4875855;29;19927;-83
2021/12/20 04:15:06;;;;;;;;;;;4.20;99.90;;;;;;4866716;29;20364;-83
2021/12/20 04:17:32;;;;;;;;;;;4.10;99.90;;;;;;4874489;29;19963;-84
2021/12/20 04:19:57;;;;;;;;;;;4.10;99.90;;;;;;4893809;29;20025;-83
2021/12/20 04:22:23;;;;;;;;;;;5.40;99.90;;;;;;4874978;29;19928;-83
2021/12/20 04:24:49;;;;;;;;;;;6.30;99.90;;;;;;4893828;29;19927;-83
2021/12/20 04:27:14;;;;;;;;;;;4.70;99.90;;;;;;4893613;29;19935;-82
2021/12/20 04:29:40;;;;;;;;;;;6.30;99.90;;;;;;4876385;29;20364;-82
2021/12/20 04:32:06;;;;;;;;;;;6.00;99.90;;;;;;4873264;29;19938;-82
2021/12/20 04:34:31;;;;;;;;;;;4.10;99.90;;;;;;4892414;29;19934;-83
2021/12/20 04:36:57;;;;;;;;;;;6.20;99.90;;;;;;4895283;29;19935;-82
2021/12/20 04:39:27;;;;;;;;;;;4.40;99.90;;;;;;4861546;29;19927;-82
2021/12/20 04:41:53;;;;;;;;;;;5.80;99.90;;;;;;4876155;29;19934;-83
2021/12/20 04:44:18;;;;;;;;;;;5.20;99.90;;;;;;4894707;29;19928;-84
2021/12/20 04:46:44;;;;;;;;;;;3.40;99.90;;;;;;4879341;29;19927;-83
2021/12/20 04:49:09;;;;;;;;;;;3.60;99.90;;;;;;4879623;29;20365;-82
2021/12/20 04:51:35;;;;;;;;;;;3.50;99.90;;;;;;4896829;29;19927;-83
2021/12/20 04:54:01;;;;;;;;;;;5.30;99.90;;;;;;4876530;29;20406;-82
2021/12/20 04:56:27;;;;;;;;;;;4.50;99.90;;;;;;4897424;29;19966;-84
2021/12/20 04:58:52;;;;;;;;;;;5.80;99.90;;;;;;4898473;29;19978;-83
2021/12/20 05:01:18;;;;;;;;;;;3.20;99.90;;;;;;4896638;29;20435;-83
2021/12/20 05:03:43;;;;;;;;;;;3.40;99.90;;;;;;4897074;29;19928;-83
2021/12/20 05:06:09;;;;;;;;;;;5.90;99.90;;;;;;4875831;29;20352;-84
2021/12/20 05:08:45;;;;;;;;;;;4.50;99.90;;;;;;4895669;29;19974;-84
2021/12/20 05:11:11;;;;;;;;;;;5.20;99.90;;;;;;4881286;29;19927;-84
2021/12/20 05:13:36;;;;;;;;;;;5.80;99.90;;;;;;4895684;29;19939;-84
2021/12/20 05:16:02;;;;;;;;;;;5.10;99.90;;;;;;4894580;29;20368;-84
2021/12/20 05:18:28;;;;;;;;;;;3.00;99.90;;;;;;4879786;29;20396;-84
2021/12/20 05:20:53;;;;;;;;;;;3.20;99.90;;;;;;4897751;29;19927;-83
2021/12/20 05:23:19;;;;;;;;;;;4.30;99.90;;;;;;4896134;29;20397;-84
2021/12/20 05:25:44;;;;;;;;;;;3.50;99.90;;;;;;4879963;29;20368;-84
2021/12/20 05:28:10;;;;;;;;;;;2.50;99.90;;;;;;4879499;29;20364;-85
2021/12/20 05:30:36;;;;;;;;;;;3.80;99.90;;;;;;4861862;29;19975;-88
2021/12/20 05:33:02;;;;;;;;;;;2.80;99.90;;;;;;4864635;29;19930;-85
2021/12/20 05:35:27;;;;;;;;;;;2.70;99.90;;;;;;4895916;29;19932;-87
2021/12/20 05:37:53;;;;;;;;;;;5.30;99.90;;;;;;4878483;29;19927;-85
2021/12/20 05:40:20;;;;;;;;;;;3.10;99.90;;;;;;4877739;29;20380;-86
2021/12/20 05:42:46;;;;;;;;;;;0.80;99.90;;;;;;4894781;29;20264;-85
2021/12/20 05:45:12;;;;;;;;;;;2.50;99.90;;;;;;4879779;29;19995;-86
2021/12/20 05:47:38;;;;;;;;;;;5.00;99.90;;;;;;4878775;29;19931;-85
2021/12/20 05:50:04;;;;;;;;;;;2.60;99.90;;;;;;4897213;29;19935;-85
2021/12/20 05:52:30;;;;;;;;;;;2.50;99.90;;;;;;4895345;29;19936;-87
2021/12/20 05:54:56;;;;;;;;;;;2.50;99.90;;;;;;4880698;29;19927;-85
2021/12/20 05:57:22;;;;;;;;;;;2.40;99.90;;;;;;4880998;29;19927;-84
2021/12/20 05:59:47;;;;;;;;;;;2.90;99.90;;;;;;4861688;29;19974;-84
2021/12/20 06:02:13;;;;;;;;;;;3.00;99.90;;;;;;4887840;29;20003;-86
2021/12/20 06:04:38;;;;;;;;;;;4.90;99.90;;;;;;4895879;29;19927;-84
2021/12/20 06:07:04;;;;;;;;;;;2.80;99.90;;;;;;4877854;29;20368;-85
2021/12/20 06:09:30;;;;;;;;;;;2.60;99.90;;;;;;4880771;29;20002;-87
2021/12/20 06:11:59;;;;;;;;;;;2.90;99.90;;;;;;4881073;29;19927;-84
2021/12/20 06:14:28;;;;;;;;;;;2.40;99.90;;;;;;4880445;29;19995;-85
2021/12/20 06:16:55;;;;;;;;;;;2.60;99.90;;;;;;4875313;29;19928;-85
2021/12/20 06:19:24;;;;;;;;;;;4.40;99.90;;;;;;4862626;29;19975;-85
2021/12/20 06:21:50;;;;;;;;;;;2.50;99.90;;;;;;4862591;29;20348;-84
2021/12/20 06:24:16;;;;;;;;;;;4.90;99.90;;;;;;4881639;29;19936;-85
2021/12/20 06:26:41;;;;;;;;;;;3.20;99.90;;;;;;4897384;29;19934;-84
2021/12/20 06:29:07;;;;;;;;;;;2.10;99.90;;;;;;4861491;29;19967;-84
2021/12/20 06:31:32;;;;;;;;;;;2.40;99.90;;;;;;4870557;29;20372;-84
2021/12/20 06:33:58;;;;;;;;;;;3.40;99.90;;;;;;4897164;29;19982;-85
2021/12/20 06:36:26;;;;;;;;;;;2.20;99.90;;;;;;4893144;29;19983;-85
2021/12/20 06:38:53;;;;;;;;;;;2.20;99.90;;;;;;4877728;29;19928;-85
2021/12/20 06:41:20;;;;;;;;;;;1.20;99.90;;;;;;4878959;29;20039;-84
2021/12/20 06:43:49;;;;;;;;;;;1.90;99.90;;;;;;4876888;29;19927;-84
2021/12/20 06:46:15;;;;;;;;;;;2.40;99.90;;;;;;4896979;29;19951;-85
2021/12/20 06:48:40;;;;;;;;;;;3.60;99.90;;;;;;4879223;29;19935;-84
2021/12/20 06:51:06;;;;;;;;;;;1.80;99.90;;;;;;4872411;29;19927;-84
2021/12/20 06:53:31;;;;;;;;;;;1.60;99.90;;;;;;4865943;29;19931;-84
2021/12/20 06:55:57;;;;;;;;;;;4.80;99.90;;;;;;4878790;29;19931;-84
2021/12/20 06:58:23;;;;;;;;;;;4.50;99.90;;;;;;4864407;29;20014;-84
2021/12/20 07:00:52;;;;;;;;;;;4.00;99.90;;;;;;4878922;29;19985;-84
2021/12/20 07:03:18;;;;;;;;;;;2.00;99.90;;;;;;4864860;29;19932;-84
2021/12/20 07:05:44;;;;;;;;;;;2.80;99.90;;;;;;4894325;29;20262;-85
2021/12/20 07:08:10;;;;;;;;;;;2.10;99.90;;;;;;4879035;29;20008;-85
2021/12/20 07:10:35;;;;;;;;;;;3.20;99.90;;;;;;4883818;29;19927;-85
2021/12/20 07:13:01;;;;;;;;;;;2.70;99.90;;;;;;4876389;29;20001;-85
2021/12/20 07:15:27;;;;;;;;;;;1.90;99.90;;;;;;4877509;29;20400;-85
2021/12/20 07:17:53;;;;;;;;;;;2.40;99.90;;;;;;4879181;29;19966;-85
2021/12/20 07:20:19;;;;;;;;;;;1.70;99.90;;;;;;4879569;29;19984;-84
2021/12/20 07:22:44;;;;;;;;;;;1.90;99.90;;;;;;4879687;29;19950;-84
2021/12/20 07:25:10;;;;;;;;;;;4.20;99.90;;;;;;4897019;29;19923;-84
2021/12/20 07:27:38;;;;;;;;;;;1.70;99.90;;;;;;4896646;29;19982;-84
2021/12/20 07:30:04;;;;;;;;;;;-0.20;99.90;;;;;;4864209;29;19923;-84
2021/12/20 07:32:30;;;;;;;;;;;1.70;99.90;;;;;;4861182;29;19924;-84
2021/12/20 07:34:55;;;;;;;;;;;1.60;99.90;;;;;;4845861;29;19923;-84
2021/12/20 07:37:22;;;;;;;;;;;1.60;99.90;;;;;;4889869;29;19923;-84
2021/12/20 07:39:47;;;;;;;;;;;3.10;99.90;;;;;;4893955;29;20368;-84
2021/12/20 07:42:13;;;;;;;;;;;2.10;99.90;;;;;;4858285;29;19928;-83
2021/12/20 07:44:41;;;;;;;;;;;1.30;99.90;;;;;;4895673;29;19938;-84
2021/12/20 07:47:07;;;;;;;;;;;1.50;99.90;;;;;;4862999;29;19950;-85
2021/12/20 07:49:34;;;;;;;;;;;1.60;99.90;;;;;;4879717;29;20369;-85
2021/12/20 07:52:00;;;;;;;;;;;1.40;99.90;;;;;;4878315;29;19931;-84
2021/12/20 07:54:26;;;;;;;;;;;3.40;99.90;;;;;;4878915;29;19934;-84
2021/12/20 07:56:51;;;;;;;;;;;-0.80;99.90;;;;;;4895606;29;19947;-84
2021/12/20 07:59:17;;;;;;;;;;;2.10;99.90;;;;;;4885983;29;19948;-85
2021/12/20 08:01:42;;;;;;;;;;;1.40;99.90;;;;;;4859423;29;19934;-86
2021/12/20 08:04:08;;;;;;;;;;;4.30;99.90;;;;;;4878373;29;20007;-86
2021/12/20 08:06:34;;;;;;;;;;;1.30;99.90;;;;;;4894738;29;19984;-86
2021/12/20 08:08:59;;;;;;;;;;;4.00;99.90;;;;;;4893958;29;19935;-85
2021/12/20 08:11:25;;;;;;;;;;;4.00;99.90;;;;;;4856168;29;19928;-85
2021/12/20 08:13:51;;;;;;;;;;;2.50;99.90;;;;;;4876194;29;20004;-85
2021/12/20 08:16:19;;;;;;;;;;;2.50;99.90;;;;;;4862584;29;19928;-85
2021/12/20 08:18:44;;;;;;;;;;;1.20;99.90;;;;;;4863717;29;19936;-87
2021/12/20 08:21:10;;;;;;;;;;;3.00;99.90;;;;;;4877278;29;19935;-84
2021/12/20 08:23:36;;;;;;;;;;;3.80;99.90;;;;;;4866861;29;19927;-85
2021/12/20 08:26:02;;;;;;;;;;;1.50;99.90;;;;;;4881476;29;19950;-84
2021/12/20 08:28:28;;;;;;;;;;;-0.10;99.90;;;;;;4874066;29;20411;-85
2021/12/20 08:30:54;;;;;;;;;;;1.50;99.90;;;;;;4882797;29;19936;-84
2021/12/20 08:33:19;;;;;;;;;;;3.20;99.90;;;;;;4866445;29;19928;-85
2021/12/20 08:35:49;;;;;;;;;;;1.50;99.90;;;;;;4880891;29;19982;-86
2021/12/20 08:38:19;;;;;;;;;;;1.50;99.90;;;;;;4866841;29;19956;-85
2021/12/20 08:40:45;;;;;;;;;;;1.60;99.90;;;;;;4863028;29;19935;-84
2021/12/20 08:43:10;;;;;;;;;;;2.30;99.90;;;;;;4879023;29;19935;-85
2021/12/20 08:45:36;;;;;;;;;;;1.60;99.90;;;;;;4876788;29;19927;-85
2021/12/20 08:48:02;;;;;;;;;;;2.30;99.90;;;;;;4882237;29;20011;-84
2021/12/20 08:50:28;;;;;;;;;;;1.70;99.90;;;;;;4899399;29;20034;-83
2021/12/20 08:52:53;;;;;;;;;;;1.60;99.90;;;;;;4881068;29;19928;-84
2021/12/20 08:55:19;;;;;;;;;;;4.40;99.90;;;;;;4881452;29;19954;-85
2021/12/20 08:57:45;;;;;;;;;;;4.00;99.90;;;;;;4866161;29;20408;-84
2021/12/20 09:00:16;;;;;;;;;;;1.70;99.90;;;;;;4897932;29;19928;-85
2021/12/20 09:02:42;;;;;;;;;;;2.20;99.90;;;;;;4896898;29;19928;-85
2021/12/20 09:05:08;;;;;;;;;;;3.30;99.90;;;;;;4877657;29;20760;-85
2021/12/20 09:07:34;;;;;;;;;;;1.90;99.90;;;;;;4875960;29;19927;-86
2021/12/20 09:09:59;;;;;;;;;;;2.60;99.90;;;;;;4895792;29;19935;-85
2021/12/20 09:12:25;;;;;;;;;;;2.00;99.90;;;;;;4881767;29;20075;-85
2021/12/20 09:14:50;;;;;;;;;;;4.30;99.90;;;;;;4865296;29;20304;-86
2021/12/20 09:17:16;;;;;;;;;;;2.60;99.90;;;;;;4898951;29;20030;-85
2021/12/20 09:19:42;;;;;;;;;;;4.00;99.90;;;;;;4882489;29;19996;-86
2021/12/20 09:22:10;;;;;;;;;;;3.20;99.90;;;;;;4897658;29;20013;-86
2021/12/20 09:24:36;;;;;;;;;;;2.10;99.90;;;;;;4897526;29;19927;-85
2021/12/20 09:27:02;;;;;;;;;;;3.70;99.90;;;;;;4881103;29;19927;-85
2021/12/20 09:29:28;;;;;;;;;;;2.40;99.90;;;;;;4898082;29;20424;-85
2021/12/20 09:31:54;;;;;;;;;;;5.20;99.90;;;;;;4896801;29;19927;-85
2021/12/20 09:34:19;;;;;;;;;;;4.10;99.90;;;;;;4864747;29;19928;-86
2021/12/20 09:36:45;;;;;;;;;;;2.40;99.90;;;;;;4881294;29;19975;-85
2021/12/20 09:39:11;;;;;;;;;;;4.10;99.90;;;;;;4898273;29;19928;-85
2021/12/20 09:44:09;;;;;;;;;;;2.70;99.90;;;;;;4875327;29;19935;-85
2021/12/20 09:46:36;;;;;;;;;;;2.60;99.90;;;;;;4873679;29;20431;-85
2021/12/20 09:49:02;;;;;;;;;;;3.50;99.90;;;;;;4898096;29;19927;-86
2021/12/20 09:51:28;;;;;;;;;;;5.80;99.90;;;;;;4897364;29;20304;-84
2021/12/20 09:53:55;;;;;;;;;;;2.90;99.90;;;;;;4881469;29;19934;-85
2021/12/20 09:56:23;;;;;;;;;;;5.00;99.90;;;;;;4881277;29;19934;-85
2021/12/20 09:58:51;;;;;;;;;;;3.30;99.90;;;;;;4896248;29;19932;-84
2021/12/20 10:01:18;;;;;;;;;;;5.70;99.90;;;;;;4897116;29;19931;-84
2021/12/20 10:03:43;;;;;;;;;;;3.70;99.90;;;;;;4879389;29;19927;-85
2021/12/20 10:06:09;;;;;;;;;;;5.50;99.90;;;;;;4878894;29;19978;-85
2021/12/20 10:08:37;;;;;;;;;;;6.50;99.90;;;;;;4880348;29;20406;-84
2021/12/20 10:11:04;;;;;;;;;;;4.00;99.90;;;;;;4865144;29;19928;-85
2021/12/20 10:13:34;;;;;;;;;;;6.20;99.90;;;;;;4891359;29;20246;-85
2021/12/20 10:16:00;;;;;;;;;;;4.10;99.90;;;;;;4896024;29;19936;-86
2021/12/20 10:18:27;;;;;;;;;;;4.00;99.90;;;;;;4880828;29;20295;-86
2021/12/20 10:20:54;;;;;;;;;;;4.90;99.90;;;;;;4896421;29;19931;-85
2021/12/20 10:23:25;;;;;;;;;;;5.00;99.90;;;;;;4879974;29;19931;-85
2021/12/20 10:25:54;;;;;;;;;;;5.50;99.90;;;;;;4864551;29;19927;-85
2021/12/20 10:28:24;;;;;;;;;;;7.40;99.90;;;;;;4880023;29;19935;-85
2021/12/20 10:30:50;;;;;;;;;;;5.60;99.90;;;;;;4864390;29;19931;-85
2021/12/20 10:33:17;;;;;;;;;;;5.30;99.90;;;;;;4863536;29;19935;-85
2021/12/20 10:35:49;;;;;;;;;;;5.40;99.90;;;;;;4845715;29;19976;-86
2021/12/20 10:38:31;;;;;;;;;;;6.10;99.90;;;;;;4889948;29;20376;-85
2021/12/20 10:41:00;;;;;;;;;;;5.30;99.90;;;;;;4897003;29;19932;-85
2021/12/20 10:43:34;;;;;;;;;;;5.50;99.90;;;;;;4890891;29;19935;-86
2021/12/20 10:46:07;;;;;;;;;;;5.40;99.90;;;;;;4893746;29;20392;-87
2021/12/20 10:48:33;;;;;;;;;;;6.80;99.90;;;;;;4880156;29;19966;-86
2021/12/20 10:50:58;;;;;;;;;;;7.60;99.90;;;;;;4861036;29;19975;-85
2021/12/20 10:53:25;;;;;;;;;;;5.20;99.90;;;;;;4858256;29;19950;-85
2021/12/20 10:55:53;;;;;;;;;;;5.00;99.90;;;;;;4895899;29;19927;-85
2021/12/20 10:58:30;;;;;;;;;;;3.70;99.90;;;;;;4896621;29;19928;-85
2021/12/20 11:01:12;;;;;;;;;;;5.20;99.90;;;;;;4895998;29;19931;-84
2021/12/20 11:03:40;;;;;;;;;;;5.20;99.90;;;;;;4879034;29;20353;-85
2021/12/20 11:11:22;;;;;;;;;;;6.00;1.00;;;;;;4866200;29;20420;-84
2021/12/20 11:13:48;;;;;;;;;;;5.50;99.90;;;;;;4893604;29;20384;-84
2021/12/20 11:16:27;;;;;;;;;;;5.20;1.00;;;;;;4883021;29;19997;-84
2021/12/20 11:19:08;;;;;;;;;;;4.90;1.00;;;;;;4879277;29;19928;-85
2021/12/20 11:21:34;;;;;;;;;;;4.90;99.90;;;;;;4862946;29;19927;-85
2021/12/20 11:24:00;;;;;;;;;;;5.20;26.10;;;;;;4879866;29;19939;-86
2021/12/20 11:26:29;;;;;;;;;;;5.30;99.90;;;;;;4864257;29;19927;-86
2021/12/20 11:28:55;;;;;;;;;;;4.70;99.90;;;;;;4877589;29;19943;-85
2021/12/20 11:31:21;;;;;;;;;;;4.90;1.00;;;;;;4885849;29;20049;-85
2021/12/20 11:33:48;;;;;;;;;;;5.10;1.00;;;;;;4864347;29;20333;-83
2021/12/20 11:36:13;;;;;;;;;;;4.90;99.90;;;;;;4879129;29;20456;-83
2021/12/20 11:38:39;;;;;;;;;;;6.20;1.00;;;;;;4879242;29;19972;-84
2021/12/20 11:41:05;;;;;;;;;;;5.00;99.90;;;;;;4877533;29;19927;-83
2021/12/20 11:43:31;;;;;;;;;;;6.10;99.90;;;;;;4876874;29;19927;-84
2021/12/20 11:45:57;;;;;;;;;;;4.70;99.90;;;;;;4878078;29;19932;-84
2021/12/20 11:48:24;;;;;;;;;;;6.00;1.00;;;;;;4895492;29;20002;-85
2021/12/20 11:50:54;;;;;;;;;;;6.10;1.00;;;;;;4894145;29;19928;-85
2021/12/20 11:53:20;;;;;;;;;;;7.50;99.90;;;;;;4895910;29;19933;-85
2021/12/20 11:55:52;;;;;;;;;;;5.10;99.90;;;;;;4896053;29;19927;-85
2021/12/20 11:58:19;;;;;;;;;;;5.10;99.90;;;;;;4878467;29;20330;-85
2021/12/20 12:00:48;;;;;;;;;;;7.20;1.00;;;;;;4895098;29;19934;-84
2021/12/20 12:03:14;;;;;;;;;;;5.00;1.00;;;;;;4895433;29;19927;-85
2021/12/20 12:06:10;;;;;;;;;;;5.00;99.90;;;;;;4861916;29;19932;-86
2021/12/20 12:08:36;;;;;;;;;;;5.00;99.90;;;;;;4849314;29;19963;-85
2021/12/20 12:11:05;;;;;;;;;;;5.40;1.00;;;;;;4879814;29;20448;-84
2021/12/20 12:13:43;;;;;;;;;;;5.00;1.00;;;;;;4876385;29;19931;-85
2021/12/20 12:16:26;;;;;;;;;;;3.50;99.90;;;;;;4863413;29;19933;-84
2021/12/20 12:18:52;;;;;;;;;;;5.00;99.90;;;;;;4895972;29;19928;-85
2021/12/20 12:21:41;;;;;;;;;;;6.70;99.90;;;;;;4877536;29;19966;-85
2021/12/20 12:24:12;;;;;;;;;;;5.40;99.90;;;;;;4872601;29;20026;-84
2021/12/20 12:26:39;;;;;;;;;;;5.40;99.90;;;;;;4895578;29;20018;-85
2021/12/20 12:29:06;;;;;;;;;;;7.00;85.90;;;;;;4879137;29;19934;-85
2021/12/20 12:32:08;;;;;;;;;;;6.50;99.90;;;;;;4894285;29;19934;-85
2021/12/20 12:34:41;;;;;;;;;;;5.60;75.20;;;;;;4788261;29;19932;-85
2021/12/20 12:37:37;;;;;;;;;;;5.70;83.70;;;;;;4882241;29;19927;-84
2021/12/20 12:40:22;;;;;;;;;;;5.70;63.30;;;;;;4877265;29;19927;-84
2021/12/20 12:42:50;;;;;;;;;;;3.80;96.30;;;;;;4894287;29;20317;-85
2021/12/20 12:45:36;;;;;;;;;;;5.80;90.30;;;;;;4872329;29;20321;-86
2021/12/20 12:48:23;;;;;;;;;;;7.20;65.60;;;;;;4877373;29;20211;-84
2021/12/20 12:50:49;;;;;;;;;;;5.70;83.50;;;;;;4893531;29;19958;-85
2021/12/20 12:53:33;;;;;;;;;;;5.30;99.90;;;;;;4876209;29;20385;-85
2021/12/20 12:56:19;;;;;;;;;;;5.70;97.80;;;;;;4875824;29;20015;-85
2021/12/20 12:58:44;;;;;;;;;;;7.80;68.30;;;;;;4864034;29;20304;-84
2021/12/20 13:01:10;;;;;;;;;;;6.60;56.80;;;;;;4874690;29;19927;-85
2021/12/20 13:03:35;;;;;;;;;;;7.90;58.90;;;;;;4894530;29;20319;-85
2021/12/20 13:06:01;;;;;;;;;;;7.70;93.00;;;;;;4894309;29;19957;-85
2021/12/20 13:08:26;;;;;;;;;;;8.30;68.40;;;;;;4879812;29;19982;-85
2021/12/20 13:10:55;;;;;;;;;;;7.80;77.60;;;;;;4898788;29;19935;-85
2021/12/20 13:13:28;;;;;;;;;;;8.10;53.20;;;;;;4882294;29;19923;-85
2021/12/20 13:16:00;;;;;;;;;;;7.30;75.80;;;;;;4882467;29;20026;-85
2021/12/20 13:18:31;;;;;;;;;;;8.20;65.40;;;;;;4898384;29;19927;-85
2021/12/20 13:23:30;;;;;;;;;;;7.00;93.20;;;;;;4862744;29;20031;-86
2021/12/20 13:25:56;;;;;;;;;;;5.70;94.50;;;;;;4894799;29;20427;-84
2021/12/20 13:28:38;;;;;;;;;;;7.40;99.90;;;;;;4881281;29;19984;-85
2021/12/20 13:31:05;;;;;;;;;;;5.50;84.80;;;;;;4879189;29;19935;-83
2021/12/20 13:33:54;;;;;;;;;;;5.90;81.50;;;;;;4895543;29;20395;-85
2021/12/20 13:36:37;;;;;;;;;;;5.20;84.20;;;;;;4876520;29;19927;-83
2021/12/20 13:39:05;;;;;;;;;;;5.50;84.60;;;;;;4897692;29;20456;-83
2021/12/20 13:41:31;;;;;;;;;;;5.60;62.20;;;;;;4881261;29;19927;-83
2021/12/20 13:44:04;;;;;;;;;;;5.60;58.90;;;;;;4880919;29;19928;-84
2021/12/20 13:49:08;;;;;;;;;;;5.50;62.10;;;;;;4877148;29;19927;-83
2021/12/20 13:51:40;;;;;;;;;;;5.40;94.60;;;;;;4864401;29;19947;-84
2021/12/20 13:54:24;;;;;;;;;;;5.40;70.80;;;;;;4897529;29;19927;-84
2021/12/20 13:56:49;;;;;;;;;;;5.40;57.00;;;;;;4880885;29;20365;-84
2021/12/20 13:59:15;;;;;;;;;;;6.90;73.60;;;;;;4881689;29;19927;-84
2021/12/20 14:01:42;;;;;;;;;;;6.70;60.40;;;;;;4880444;29;19935;-83
2021/12/20 14:04:07;;;;;;;;;;;5.20;64.70;;;;;;4897753;29;19928;-83
2021/12/20 14:06:42;;;;;;;;;;;5.20;59.30;;;;;;4880493;29;19934;-83
2021/12/20 14:09:34;;;;;;;;;;;7.00;92.20;;;;;;4881505;29;19938;-83
2021/12/20 14:12:09;;;;;;;;;;;5.10;91.80;;;;;;4862838;29;20023;-83
2021/12/20 14:14:34;;;;;;;;;;;5.10;65.70;;;;;;4871144;29;19928;-84
2021/12/20 14:17:01;;;;;;;;;;;5.30;66.90;;;;;;4897379;29;20380;-84
2021/12/20 14:19:45;;;;;;;;;;;6.10;90.70;;;;;;4860167;29;19931;-84
2021/12/20 14:22:11;;;;;;;;;;;4.80;98.80;;;;;;4879646;29;19931;-84
2021/12/20 14:24:37;;;;;;;;;;;5.10;95.10;;;;;;4878181;29;19984;-83
2021/12/20 14:27:03;;;;;;;;;;;4.80;83.70;;;;;;4864767;29;19935;-83
2021/12/20 14:29:32;;;;;;;;;;;4.80;99.10;;;;;;4864778;29;19967;-85
2021/12/20 14:32:00;;;;;;;;;;;4.70;99.90;;;;;;4896830;29;19974;-83
2021/12/20 14:34:31;;;;;;;;;;;4.70;90.80;;;;;;4879885;29;19935;-83
2021/12/20 14:37:06;;;;;;;;;;;4.50;99.90;;;;;;4879720;29;19975;-84
2021/12/20 14:39:39;;;;;;;;;;;4.40;99.90;;;;;;4867025;29;19949;-85
2021/12/20 14:42:04;;;;;;;;;;;6.60;99.90;;;;;;4896964;29;20416;-84
2021/12/20 14:44:39;;;;;;;;;;;4.30;99.90;;;;;;4879304;29;20023;-84
2021/12/20 14:47:18;;;;;;;;;;;6.50;99.90;;;;;;4873972;29;19934;-84
2021/12/20 14:49:51;;;;;;;;;;;5.90;99.90;;;;;;4875876;29;19950;-84
2021/12/20 14:52:19;;;;;;;;;;;2.70;99.90;;;;;;4879285;29;19935;-84
2021/12/20 14:54:51;;;;;;;;;;;6.10;99.90;;;;;;4869922;29;20077;-84
2021/12/20 14:57:20;;;;;;;;;;;5.20;99.90;;;;;;4879404;29;19935;-85
2021/12/20 14:59:52;;;;;;;;;;;3.60;99.90;;;;;;4848822;29;19982;-85
2021/12/20 15:02:24;;;;;;;;;;;3.50;99.90;;;;;;4864203;29;20404;-84